Time;durP1;ratioP1;P1;durP2;ratioP2;P2;SDS_P1;SDS_P2;PMS_P1;PMS_P2;Temp;Humidity;BMP_temperature;BMP_pressure;BME280_temperature;BME280_humidity;BME280_pressure;Samples;Min_cycle;Max_cycle;Signal;HPM_P1;HPM_P2
2022/11/02 00:01:26;;;;;;;2.25;1.50;;;;;;;;;;5119243;28;20200;-84
2022/11/02 00:03:53;;;;;;;3.28;1.75;;;;;;;;;;5119452;28;20215;-85
2022/11/02 00:06:21;;;;;;;3.92;1.85;;;;;;;;;;5118576;28;20227;-84
2022/11/02 00:08:48;;;;;;;3.58;1.52;;;;;;;;;;5119313;28;20607;-84
2022/11/02 00:11:16;;;;;;;2.08;1.52;;;;;;;;;;5118536;28;20264;-84
2022/11/02 00:13:43;;;;;;;2.40;1.63;;;;;;;;;;5119435;28;20283;-85
2022/11/02 00:16:14;;;;;;;4.28;1.20;;;;;;;;;;5119014;28;20263;-84
2022/11/02 00:18:44;;;;;;;3.35;2.13;;;;;;;;;;5117826;28;20204;-84
2022/11/02 00:21:11;;;;;;;5.22;2.00;;;;;;;;;;5117917;28;20218;-85
2022/11/02 00:23:39;;;;;;;4.18;1.40;;;;;;;;;;5118080;28;20360;-84
2022/11/02 00:26:08;;;;;;;3.65;1.60;;;;;;;;;;5117679;28;20291;-84
2022/11/02 00:28:36;;;;;;;2.53;1.20;;;;;;;;;;5118405;28;20290;-84
2022/11/02 00:31:03;;;;;;;4.07;1.65;;;;;;;;;;5118042;28;20283;-84
2022/11/02 00:33:32;;;;;;;2.50;1.40;;;;;;;;;;5117663;28;20670;-84
2022/11/02 00:36:00;;;;;;;2.63;1.20;;;;;;;;;;5119495;28;20278;-85
2022/11/02 00:38:27;;;;;;;1.95;1.35;;;;;;;;;;5117738;28;20679;-84
2022/11/02 00:40:55;;;;;;;2.40;1.58;;;;;;;;;;5118206;28;20279;-85
2022/11/02 00:43:22;;;;;;;4.38;1.30;;;;;;;;;;5118287;28;20295;-84
2022/11/02 00:45:50;;;;;;;4.55;1.50;;;;;;;;;;5117942;28;20261;-84
2022/11/02 00:48:17;;;;;;;4.03;1.20;;;;;;;;;;5118288;28;20214;-84
2022/11/02 00:50:46;;;;;;;1.92;1.45;;;;;;;;;;5121929;28;20292;-84
2022/11/02 00:53:14;;;;;;;3.53;1.30;;;;;;;;;;5115258;28;20286;-84
2022/11/02 00:55:41;;;;;;;2.92;1.48;;;;;;;;;;5121478;28;20249;-84
2022/11/02 00:58:09;;;;;;;2.40;1.55;;;;;;;;;;5120258;28;20741;-85
2022/11/02 01:00:36;;;;;;;3.60;1.35;;;;;;;;;;5121076;28;20223;-84
2022/11/02 01:03:03;;;;;;;1.95;1.35;;;;;;;;;;5120657;28;20260;-84
2022/11/02 01:05:31;;;;;;;3.80;1.88;;;;;;;;;;5120785;28;20682;-84
2022/11/02 01:08:00;;;;;;;4.18;1.55;;;;;;;;;;5120809;28;20231;-84
2022/11/02 01:10:27;;;;;;;3.53;1.60;;;;;;;;;;5121293;28;20230;-84
2022/11/02 01:12:55;;;;;;;2.55;1.42;;;;;;;;;;5120322;28;20262;-84
2022/11/02 01:15:22;;;;;;;5.53;1.80;;;;;;;;;;5120251;28;20239;-83
2022/11/02 01:17:50;;;;;;;2.83;1.25;;;;;;;;;;5120600;28;20248;-84
2022/11/02 01:20:17;;;;;;;7.97;2.10;;;;;;;;;;5120183;28;20231;-84
2022/11/02 01:22:45;;;;;;;2.22;1.38;;;;;;;;;;5120679;28;20209;-84
2022/11/02 01:25:14;;;;;;;2.92;1.50;;;;;;;;;;5120373;28;20314;-84
2022/11/02 01:27:41;;;;;;;4.78;1.75;;;;;;;;;;5119493;28;20238;-84
2022/11/02 01:30:10;;;;;;;3.75;2.38;;;;;;;;;;5100109;28;20235;-85
2022/11/02 01:32:38;;;;;;;3.72;1.80;;;;;;;;;;5098885;28;20292;-85
2022/11/02 01:35:06;;;;;;;2.58;1.77;;;;;;;;;;5099103;28;20288;-85
2022/11/02 01:37:34;;;;;;;3.28;1.65;;;;;;;;;;5099319;28;20288;-85
2022/11/02 01:40:01;;;;;;;3.60;1.52;;;;;;;;;;5099110;28;20571;-85
2022/11/02 01:42:30;;;;;;;2.38;1.48;;;;;;;;;;5100248;28;20196;-85
2022/11/02 01:44:57;;;;;;;3.88;1.60;;;;;;;;;;5098894;28;20741;-84
2022/11/02 01:47:28;;;;;;;2.50;1.63;;;;;;;;;;5099285;28;20203;-86
2022/11/02 01:50:04;;;;;;;3.70;1.95;;;;;;;;;;5099143;28;20242;-85
2022/11/02 01:52:35;;;;;;;3.20;1.50;;;;;;;;;;5105850;28;20259;-85
2022/11/02 01:55:08;;;;;;;3.47;1.48;;;;;;;;;;5120619;28;20219;-85
2022/11/02 01:57:38;;;;;;;1.35;1.17;;;;;;;;;;5120076;28;20263;-86
2022/11/02 02:00:09;;;;;;;2.65;1.45;;;;;;;;;;5099789;28;20692;-85
2022/11/02 02:02:40;;;;;;;8.18;2.03;;;;;;;;;;5098906;28;20259;-84
2022/11/02 02:05:10;;;;;;;4.72;1.60;;;;;;;;;;5099002;28;20252;-84
2022/11/02 02:07:39;;;;;;;3.83;1.33;;;;;;;;;;5098440;28;20279;-85
2022/11/02 02:10:08;;;;;;;4.32;1.35;;;;;;;;;;5099406;28;20290;-85
2022/11/02 02:12:39;;;;;;;3.75;1.40;;;;;;;;;;5098416;28;20219;-85
2022/11/02 02:15:08;;;;;;;2.35;1.60;;;;;;;;;;5098666;28;20303;-84
2022/11/02 02:17:44;;;;;;;4.85;1.70;;;;;;;;;;5098715;28;20239;-84
2022/11/02 02:20:20;;;;;;;2.53;1.52;;;;;;;;;;5098355;28;20635;-84
2022/11/02 02:23:24;;;;;;;2.95;1.50;;;;;;;;;;5101230;28;20199;-84
2022/11/02 02:26:28;;;;;;;1.63;1.50;;;;;;;;;;5119106;28;20225;-84
2022/11/02 02:28:59;;;;;;;1.58;1.05;;;;;;;;;;5119402;28;20227;-84
2022/11/02 02:31:33;;;;;;;4.47;1.70;;;;;;;;;;5117332;28;20683;-84
2022/11/02 02:34:07;;;;;;;5.90;1.98;;;;;;;;;;5117483;28;20306;-85
2022/11/02 02:36:40;;;;;;;3.85;1.45;;;;;;;;;;5117640;28;20200;-85
2022/11/02 02:39:12;;;;;;;4.53;2.13;;;;;;;;;;5116690;28;20199;-84
2022/11/02 02:41:41;;;;;;;5.82;1.98;;;;;;;;;;5118368;28;20267;-85
2022/11/02 02:44:13;;;;;;;4.68;1.42;;;;;;;;;;5118037;28;20245;-84
2022/11/02 02:46:45;;;;;;;4.20;2.03;;;;;;;;;;5117399;28;20310;-85
2022/11/02 02:49:18;;;;;;;4.53;1.83;;;;;;;;;;5116935;28;20266;-85
2022/11/02 02:51:46;;;;;;;2.38;1.20;;;;;;;;;;5116296;28;20679;-84
2022/11/02 02:54:19;;;;;;;4.38;1.80;;;;;;;;;;5116318;28;20219;-85
2022/11/02 02:56:50;;;;;;;5.43;1.90;;;;;;;;;;5116156;28;20223;-84
2022/11/02 02:59:24;;;;;;;2.88;1.73;;;;;;;;;;5116802;28;20742;-84
2022/11/02 03:01:52;;;;;;;3.17;1.67;;;;;;;;;;5117664;28;20202;-85
2022/11/02 03:04:19;;;;;;;3.40;1.50;;;;;;;;;;5117295;28;20251;-84
2022/11/02 03:06:50;;;;;;;5.28;2.08;;;;;;;;;;5118461;28;20306;-84
2022/11/02 03:09:24;;;;;;;3.53;1.70;;;;;;;;;;5117150;28;20202;-84
2022/11/02 03:12:00;;;;;;;3.47;1.98;;;;;;;;;;5117791;28;20266;-84
2022/11/02 03:14:38;;;;;;;3.40;1.35;;;;;;;;;;5117123;28;20302;-83
2022/11/02 03:17:15;;;;;;;7.32;1.88;;;;;;;;;;5117539;28;20183;-84
2022/11/02 03:19:51;;;;;;;5.90;1.63;;;;;;;;;;5116342;28;20233;-84
2022/11/02 03:22:27;;;;;;;3.97;1.42;;;;;;;;;;5116107;28;20207;-84
2022/11/02 03:25:01;;;;;;;2.95;1.50;;;;;;;;;;5116059;28;20605;-85
2022/11/02 03:27:38;;;;;;;1.80;1.30;;;;;;;;;;5115032;28;20607;-85
2022/11/02 03:30:15;;;;;;;1.83;1.42;;;;;;;;;;5114738;28;20203;-84
2022/11/02 03:32:50;;;;;;;4.90;2.75;;;;;;;;;;5115717;28;20206;-85
2022/11/02 03:35:21;;;;;;;2.67;1.50;;;;;;;;;;5116565;28;20773;-85
2022/11/02 03:37:53;;;;;;;6.68;2.05;;;;;;;;;;5115566;28;20259;-84
2022/11/02 03:40:23;;;;;;;3.92;2.22;;;;;;;;;;5115713;28;20216;-85
2022/11/02 03:42:52;;;;;;;4.60;1.70;;;;;;;;;;5115189;28;20214;-85
2022/11/02 03:45:23;;;;;;;3.70;1.55;;;;;;;;;;5115201;28;20299;-85
2022/11/02 03:47:59;;;;;;;2.92;1.73;;;;;;;;;;5114928;28;20320;-85
2022/11/02 03:50:27;;;;;;;2.70;1.20;;;;;;;;;;5114941;28;20270;-87
2022/11/02 03:52:58;;;;;;;2.33;1.25;;;;;;;;;;5115917;28;20204;-84
2022/11/02 03:55:31;;;;;;;3.17;1.50;;;;;;;;;;5114516;28;20216;-84
2022/11/02 03:57:59;;;;;;;2.20;1.45;;;;;;;;;;5114418;28;20206;-85
2022/11/02 04:00:33;;;;;;;2.92;1.70;;;;;;;;;;5115050;28;20226;-84
2022/11/02 04:03:03;;;;;;;3.28;1.50;;;;;;;;;;5115533;28;20218;-84
2022/11/02 04:05:32;;;;;;;6.00;1.40;;;;;;;;;;5115579;28;20725;-84
2022/11/02 04:16:16;;;;;;;1.20;1.10;;;;;;;;;;5115835;28;20186;-86
2022/11/02 04:21:31;;;;;;;2.00;1.40;;;;;;;;;;5116228;28;20187;-84
2022/11/02 04:26:43;;;;;;;2.88;1.60;;;;;;;;;;5119151;28;20295;-86
2022/11/02 04:29:12;;;;;;;4.20;1.90;;;;;;;;;;5119215;28;20645;-84
2022/11/02 04:31:40;;;;;;;3.13;1.20;;;;;;;;;;5120159;28;20192;-84
2022/11/02 04:34:07;;;;;;;3.55;1.35;;;;;;;;;;5120212;28;20225;-84
2022/11/02 04:36:34;;;;;;;5.53;1.80;;;;;;;;;;5120132;28;20195;-84
2022/11/02 04:39:01;;;;;;;3.17;1.70;;;;;;;;;;5119381;28;20235;-85
2022/11/02 04:44:11;;;;;;;5.43;1.60;;;;;;;;;;5117534;28;20234;-84
2022/11/02 04:46:43;;;;;;;2.67;1.40;;;;;;;;;;5118956;28;20248;-84
2022/11/02 04:49:13;;;;;;;2.65;1.45;;;;;;;;;;5120506;28;20751;-84
2022/11/02 04:51:40;;;;;;;2.47;1.27;;;;;;;;;;5120008;28;20200;-85
2022/11/02 04:54:08;;;;;;;6.30;1.27;;;;;;;;;;5119568;28;20223;-84
2022/11/02 04:56:35;;;;;;;3.28;1.92;;;;;;;;;;5118355;28;20288;-84
2022/11/02 04:59:03;;;;;;;4.50;1.70;;;;;;;;;;5118578;28;20264;-87
2022/11/02 05:01:31;;;;;;;4.13;1.75;;;;;;;;;;5118335;28;20202;-85
2022/11/02 05:04:00;;;;;;;2.00;1.35;;;;;;;;;;5119225;28;20283;-84
2022/11/02 05:06:27;;;;;;;3.63;1.60;;;;;;;;;;5118375;28;20286;-84
2022/11/02 05:08:55;;;;;;;3.15;1.60;;;;;;;;;;5118906;28;20308;-84
2022/11/02 05:11:23;;;;;;;2.78;1.98;;;;;;;;;;5119210;28;20577;-84
2022/11/02 05:13:50;;;;;;;4.78;1.60;;;;;;;;;;5108704;28;20227;-84
2022/11/02 05:16:18;;;;;;;2.55;1.63;;;;;;;;;;5098517;28;20271;-85
2022/11/02 05:18:45;;;;;;;3.35;1.92;;;;;;;;;;5098436;28;20307;-85
2022/11/02 05:21:14;;;;;;;2.67;1.50;;;;;;;;;;5097534;28;20269;-84
2022/11/02 05:23:42;;;;;;;3.83;1.67;;;;;;;;;;5098782;28;20697;-84
2022/11/02 05:26:12;;;;;;;1.77;1.30;;;;;;;;;;5098994;28;20211;-85
2022/11/02 05:28:39;;;;;;;2.90;1.73;;;;;;;;;;5104693;28;20319;-85
2022/11/02 05:31:07;;;;;;;2.33;1.33;;;;;;;;;;5118022;28;20267;-84
2022/11/02 05:33:35;;;;;;;2.38;1.75;;;;;;;;;;5118498;28;20295;-84
2022/11/02 05:36:03;;;;;;;3.80;1.25;;;;;;;;;;5116856;28;20291;-84
2022/11/02 05:38:32;;;;;;;2.53;1.40;;;;;;;;;;5117532;28;20293;-84
2022/11/02 05:41:01;;;;;;;2.78;1.67;;;;;;;;;;5117601;28;20206;-80
2022/11/02 05:43:28;;;;;;;3.03;1.88;;;;;;;;;;5116207;28;20287;-80
2022/11/02 05:45:58;;;;;;;3.53;1.58;;;;;;;;;;5115882;28;20222;-81
2022/11/02 05:48:27;;;;;;;4.05;1.70;;;;;;;;;;5120069;28;20227;-81
2022/11/02 05:50:56;;;;;;;4.30;2.42;;;;;;;;;;5116349;28;20195;-81
2022/11/02 05:53:24;;;;;;;2.03;1.40;;;;;;;;;;5110279;28;20196;-80
2022/11/02 05:55:53;;;;;;;4.07;1.75;;;;;;;;;;5116194;28;20311;-81
2022/11/02 05:58:20;;;;;;;3.17;1.75;;;;;;;;;;5115371;28;20263;-81
2022/11/02 06:00:48;;;;;;;3.15;1.85;;;;;;;;;;5116152;28;20286;-81
2022/11/02 06:03:16;;;;;;;2.58;1.70;;;;;;;;;;5116605;28;20291;-81
2022/11/02 06:05:44;;;;;;;4.13;2.00;;;;;;;;;;5116389;28;20310;-81
2022/11/02 06:08:11;;;;;;;3.55;1.70;;;;;;;;;;5115641;28;20226;-81
2022/11/02 06:10:41;;;;;;;3.60;1.90;;;;;;;;;;5116077;28;20287;-82
2022/11/02 06:13:10;;;;;;;4.25;1.20;;;;;;;;;;5116297;28;20667;-81
2022/11/02 06:15:38;;;;;;;4.63;2.10;;;;;;;;;;5115349;28;20763;-81
2022/11/02 06:18:06;;;;;;;2.92;2.38;;;;;;;;;;5115378;28;20291;-80
2022/11/02 06:20:34;;;;;;;3.10;1.63;;;;;;;;;;5115746;28;20197;-81
2022/11/02 06:23:01;;;;;;;4.82;1.67;;;;;;;;;;5118161;28;20290;-80
2022/11/02 06:25:29;;;;;;;4.43;3.38;;;;;;;;;;5120731;28;20286;-80
2022/11/02 06:27:57;;;;;;;4.32;1.85;;;;;;;;;;5119867;28;20302;-80
2022/11/02 06:30:26;;;;;;;3.05;2.30;;;;;;;;;;5120832;28;20320;-81
2022/11/02 06:32:54;;;;;;;2.45;1.58;;;;;;;;;;5118342;28;20247;-81
2022/11/02 06:35:23;;;;;;;2.60;1.63;;;;;;;;;;5116431;28;20306;-80
2022/11/02 06:37:51;;;;;;;2.33;1.90;;;;;;;;;;5116637;28;20291;-80
2022/11/02 06:40:18;;;;;;;3.08;2.78;;;;;;;;;;5116331;28;20675;-81
2022/11/02 06:42:45;;;;;;;3.13;1.58;;;;;;;;;;5116176;28;20202;-81
2022/11/02 06:45:13;;;;;;;6.50;2.05;;;;;;;;;;5116326;28;20228;-81
2022/11/02 06:47:42;;;;;;;2.88;1.30;;;;;;;;;;5116801;28;20618;-81
2022/11/02 06:50:10;;;;;;;2.30;1.63;;;;;;;;;;5115731;28;20206;-81
2022/11/02 06:52:43;;;;;;;3.78;2.10;;;;;;;;;;5116240;28;20263;-81
2022/11/02 06:55:11;;;;;;;1.70;1.23;;;;;;;;;;5116881;28;20219;-81
2022/11/02 06:57:40;;;;;;;2.53;1.60;;;;;;;;;;5115356;28;20206;-80
2022/11/02 07:00:11;;;;;;;3.38;1.63;;;;;;;;;;5114845;28;20294;-80
2022/11/02 07:02:39;;;;;;;4.20;2.45;;;;;;;;;;5115464;28;20210;-81
2022/11/02 07:05:09;;;;;;;2.72;1.50;;;;;;;;;;5115698;28;20237;-81
2022/11/02 07:07:36;;;;;;;5.40;2.63;;;;;;;;;;5115970;28;20593;-80
2022/11/02 07:10:07;;;;;;;4.05;2.00;;;;;;;;;;5115691;28;20661;-81
2022/11/02 07:12:35;;;;;;;3.25;2.10;;;;;;;;;;5115497;28;20192;-81
2022/11/02 07:15:03;;;;;;;1.52;1.20;;;;;;;;;;5117810;28;20357;-81
2022/11/02 07:17:30;;;;;;;2.28;1.50;;;;;;;;;;5118986;28;20290;-80
2022/11/02 07:19:57;;;;;;;5.57;1.58;;;;;;;;;;5117546;28;20341;-80
2022/11/02 07:22:26;;;;;;;3.42;1.90;;;;;;;;;;5118610;28;20268;-80
2022/11/02 07:24:54;;;;;;;4.25;1.90;;;;;;;;;;5119802;28;20251;-81
2022/11/02 07:27:21;;;;;;;3.05;1.65;;;;;;;;;;5119324;28;20290;-82
2022/11/02 07:29:48;;;;;;;3.92;2.47;;;;;;;;;;5117574;28;20318;-80
2022/11/02 07:32:16;;;;;;;3.50;1.65;;;;;;;;;;5118020;28;20742;-81
2022/11/02 07:34:43;;;;;;;3.25;1.50;;;;;;;;;;5120847;28;20310;-81
2022/11/02 07:37:11;;;;;;;2.75;1.20;;;;;;;;;;5117772;28;20285;-80
2022/11/02 07:39:40;;;;;;;3.70;1.70;;;;;;;;;;5119022;28;20638;-79
2022/11/02 07:42:07;;;;;;;4.25;2.03;;;;;;;;;;5118560;28;20262;-81
2022/11/02 07:44:34;;;;;;;3.10;1.80;;;;;;;;;;5118515;28;20310;-81
2022/11/02 07:47:02;;;;;;;3.05;2.00;;;;;;;;;;5117831;28;20292;-81
2022/11/02 07:49:29;;;;;;;3.85;2.08;;;;;;;;;;5116872;28;20215;-80
2022/11/02 07:51:57;;;;;;;2.72;1.38;;;;;;;;;;5117734;28;20294;-80
2022/11/02 07:54:24;;;;;;;4.43;1.45;;;;;;;;;;5117070;28;21044;-80
2022/11/02 07:56:53;;;;;;;3.08;1.60;;;;;;;;;;5116018;28;20271;-81
2022/11/02 07:59:21;;;;;;;2.03;1.35;;;;;;;;;;5116124;28;20298;-80
2022/11/02 08:01:48;;;;;;;3.47;1.63;;;;;;;;;;5117345;28;20710;-81
2022/11/02 08:04:16;;;;;;;6.53;2.00;;;;;;;;;;5115915;28;20215;-79
2022/11/02 08:06:43;;;;;;;2.85;1.48;;;;;;;;;;5117067;28;20293;-80
2022/11/02 08:09:11;;;;;;;7.30;1.90;;;;;;;;;;5116830;28;20310;-80
2022/11/02 08:11:39;;;;;;;4.18;1.67;;;;;;;;;;5116605;28;20203;-80
2022/11/02 08:14:08;;;;;;;2.22;2.00;;;;;;;;;;5117465;28;20654;-80
2022/11/02 08:16:35;;;;;;;1.42;1.33;;;;;;;;;;5117842;28;20267;-80
2022/11/02 08:19:02;;;;;;;2.03;1.17;;;;;;;;;;5117674;28;20287;-80
2022/11/02 08:21:30;;;;;;;2.38;1.10;;;;;;;;;;5115030;28;20290;-79
2022/11/02 08:23:57;;;;;;;5.15;1.65;;;;;;;;;;5115854;28;20287;-81
2022/11/02 08:26:25;;;;;;;2.55;1.45;;;;;;;;;;5116440;28;20267;-80
2022/11/02 08:28:52;;;;;;;3.28;1.52;;;;;;;;;;5116556;28;20222;-80
2022/11/02 08:31:21;;;;;;;2.17;1.63;;;;;;;;;;5114305;28;20287;-81
2022/11/02 08:33:48;;;;;;;2.25;1.13;;;;;;;;;;5112292;28;20246;-79
2022/11/02 08:36:16;;;;;;;1.98;1.83;;;;;;;;;;5112382;28;20911;-80
2022/11/02 08:38:43;;;;;;;2.85;1.92;;;;;;;;;;5117783;28;20208;-80
2022/11/02 08:41:11;;;;;;;3.58;1.70;;;;;;;;;;5119765;28;20290;-80
2022/11/02 08:43:38;;;;;;;2.67;1.65;;;;;;;;;;5119895;28;20295;-80
2022/11/02 08:46:06;;;;;;;2.20;1.50;;;;;;;;;;5119210;28;20268;-81
2022/11/02 08:48:35;;;;;;;3.35;1.60;;;;;;;;;;5119418;28;20287;-81
2022/11/02 08:51:04;;;;;;;2.15;1.90;;;;;;;;;;5119613;28;20283;-79
2022/11/02 08:53:31;;;;;;;4.05;1.52;;;;;;;;;;5119186;28;20219;-80
2022/11/02 08:55:59;;;;;;;3.35;1.80;;;;;;;;;;5119238;28;20658;-82
2022/11/02 08:58:26;;;;;;;4.47;1.67;;;;;;;;;;5119129;28;20279;-82
2022/11/02 09:00:54;;;;;;;3.65;1.40;;;;;;;;;;5117698;28;20237;-81
2022/11/02 09:03:23;;;;;;;2.40;1.60;;;;;;;;;;5115514;28;20735;-81
2022/11/02 09:05:58;;;;;;;2.65;1.63;;;;;;;;;;5115584;28;20200;-79
2022/11/02 09:08:26;;;;;;;5.68;2.08;;;;;;;;;;5112659;28;20206;-81
2022/11/02 09:10:54;;;;;;;3.97;1.75;;;;;;;;;;5115195;28;20762;-80
2022/11/02 09:13:24;;;;;;;2.20;1.40;;;;;;;;;;5116616;28;20202;-80
2022/11/02 09:15:53;;;;;;;2.00;1.25;;;;;;;;;;5116006;28;20206;-81
2022/11/02 09:18:21;;;;;;;2.83;1.55;;;;;;;;;;5115743;28;20200;-84
2022/11/02 09:20:50;;;;;;;1.67;1.35;;;;;;;;;;5117463;28;20206;-80
2022/11/02 09:23:20;;;;;;;2.45;2.03;;;;;;;;;;5115541;28;20204;-80
2022/11/02 09:25:47;;;;;;;2.67;1.40;;;;;;;;;;5117565;28;20223;-81
2022/11/02 09:28:15;;;;;;;2.50;1.23;;;;;;;;;;5116323;28;20294;-80
2022/11/02 09:30:43;;;;;;;2.00;1.17;;;;;;;;;;5117043;28;20231;-80
2022/11/02 09:33:10;;;;;;;3.83;1.80;;;;;;;;;;5120750;28;20325;-80
2022/11/02 09:35:40;;;;;;;2.40;1.33;;;;;;;;;;5117620;28;20310;-81
2022/11/02 09:38:08;;;;;;;2.90;1.30;;;;;;;;;;5115848;28;20294;-80
2022/11/02 09:40:40;;;;;;;7.88;1.88;;;;;;;;;;5115096;28;20200;-80
2022/11/02 09:43:17;;;;;;;2.20;1.30;;;;;;;;;;5115763;28;20206;-80
2022/11/02 09:45:53;;;;;;;2.67;1.23;;;;;;;;;;5115513;28;20571;-79
2022/11/02 09:48:25;;;;;;;3.55;1.58;;;;;;;;;;5115982;28;20263;-81
2022/11/02 09:51:00;;;;;;;1.98;1.52;;;;;;;;;;5115915;28;20620;-80
2022/11/02 09:53:36;;;;;;;2.85;1.20;;;;;;;;;;5116291;28;20210;-81
2022/11/02 09:56:06;;;;;;;3.60;1.58;;;;;;;;;;5115159;28;20290;-81
2022/11/02 09:58:38;;;;;;;3.13;2.30;;;;;;;;;;5115693;28;20631;-81
2022/11/02 10:01:17;;;;;;;2.63;1.65;;;;;;;;;;5115069;28;20245;-81
2022/11/02 10:04:06;;;;;;;2.50;1.23;;;;;;;;;;5115241;28;20306;-80
2022/11/02 10:06:36;;;;;;;3.28;1.38;;;;;;;;;;5113445;28;20230;-81
2022/11/02 10:09:09;;;;;;;1.13;1.02;;;;;;;;;;5112497;28;20739;-81
2022/11/02 10:11:48;;;;;;;3.78;1.30;;;;;;;;;;5097277;28;20227;-81
2022/11/02 10:14:20;;;;;;;2.85;1.50;;;;;;;;;;5093896;28;20224;-81
2022/11/02 10:16:52;;;;;;;4.13;1.75;;;;;;;;;;5094744;28;20291;-82
2022/11/02 10:19:21;;;;;;;4.05;1.48;;;;;;;;;;5093575;28;20291;-81
2022/11/02 10:21:51;;;;;;;2.13;1.23;;;;;;;;;;5093776;28;20222;-82
2022/11/02 10:24:26;;;;;;;2.63;1.52;;;;;;;;;;5109803;28;20322;-82
2022/11/02 10:26:59;;;;;;;2.85;1.35;;;;;;;;;;5114638;28;20722;-83
2022/11/02 10:29:41;;;;;;;3.30;1.40;;;;;;;;;;5114425;28;20235;-82
2022/11/02 10:32:11;;;;;;;1.42;1.05;;;;;;;;;;5115083;28;20318;-83
2022/11/02 10:34:40;;;;;;;1.27;1.00;;;;;;;;;;5116070;28;20310;-83
2022/11/02 10:37:22;;;;;;;1.95;0.90;;;;;;;;;;5116827;28;20612;-82
2022/11/02 10:40:01;;;;;;;2.97;1.55;;;;;;;;;;5114523;28;20215;-83
2022/11/02 10:42:51;;;;;;;1.73;1.20;;;;;;;;;;5117993;28;20291;-83
2022/11/02 10:45:54;;;;;;;5.35;1.38;;;;;;;;;;5115780;28;20349;-82
2022/11/02 10:48:35;;;;;;;2.03;1.08;;;;;;;;;;5116079;28;20242;-82
2022/11/02 10:51:09;;;;;;;1.73;1.05;;;;;;;;;;5114756;28;20601;-82
2022/11/02 10:53:39;;;;;;;1.63;1.10;;;;;;;;;;5114198;28;20203;-82
2022/11/02 10:56:14;;;;;;;0.98;0.77;;;;;;;;;;5113926;28;20577;-82
2022/11/02 10:58:49;;;;;;;2.88;1.52;;;;;;;;;;5115039;28;20290;-82
2022/11/02 11:01:17;;;;;;;1.63;1.00;;;;;;;;;;5115201;28;20689;-81
2022/11/02 11:03:56;;;;;;;1.27;1.17;;;;;;;;;;5113650;28;20713;-81
2022/11/02 11:06:25;;;;;;;1.58;1.00;;;;;;;;;;5113430;28;20290;-81
2022/11/02 11:08:53;;;;;;;3.35;1.30;;;;;;;;;;5114149;28;20294;-81
2022/11/02 11:11:24;;;;;;;3.53;1.30;;;;;;;;;;5113843;28;20216;-82
2022/11/02 11:14:00;;;;;;;4.07;1.20;;;;;;;;;;5115049;28;20774;-82
2022/11/02 11:16:40;;;;;;;1.52;1.15;;;;;;;;;;5114543;28;20286;-83
2022/11/02 11:19:20;;;;;;;2.72;1.23;;;;;;;;;;5115988;28;20290;-81
2022/11/02 11:21:48;;;;;;;2.47;1.33;;;;;;;;;;5114180;28;20202;-82
2022/11/02 11:24:28;;;;;;;3.30;1.38;;;;;;;;;;5113890;28;20767;-82
2022/11/02 11:27:17;;;;;;;1.90;1.08;;;;;;;;;;5115664;28;20286;-82
2022/11/02 11:29:55;;;;;;;1.40;1.30;;;;;;;;;;5113194;28;20726;-82
2022/11/02 11:32:26;;;;;;;1.77;0.95;;;;;;;;;;5112930;28;20232;-82
2022/11/02 11:35:00;;;;;;;1.55;1.20;;;;;;;;;;5112718;28;20772;-82
2022/11/02 11:37:28;;;;;;;1.33;1.13;;;;;;;;;;5113140;28;20750;-82
2022/11/02 11:40:00;;;;;;;1.25;0.98;;;;;;;;;;5113267;28;20214;-82
2022/11/02 11:42:31;;;;;;;1.13;1.00;;;;;;;;;;5113194;28;20286;-81
2022/11/02 11:45:05;;;;;;;1.63;1.13;;;;;;;;;;5112385;28;20241;-82
2022/11/02 11:47:35;;;;;;;1.15;0.90;;;;;;;;;;5112984;28;20201;-81
2022/11/02 11:50:05;;;;;;;1.00;0.98;;;;;;;;;;5112970;28;20290;-81
2022/11/02 11:52:34;;;;;;;1.70;1.27;;;;;;;;;;5112983;28;20215;-81
2022/11/02 11:55:19;;;;;;;1.10;0.80;;;;;;;;;;5113108;28;20223;-81
2022/11/02 11:57:46;;;;;;;1.50;1.27;;;;;;;;;;5115094;28;20287;-82
2022/11/02 12:00:29;;;;;;;2.15;1.23;;;;;;;;;;5115012;28;20294;-82
2022/11/02 12:03:04;;;;;;;3.53;1.27;;;;;;;;;;5112908;28;20283;-81
2022/11/02 12:05:35;;;;;;;1.50;1.20;;;;;;;;;;5113162;28;20230;-81
2022/11/02 12:08:31;;;;;;;0.63;0.55;;;;;;;;;;5112595;28;20203;-82
2022/11/02 12:11:24;;;;;;;1.30;0.80;;;;;;;;;;5109864;28;20282;-81
2022/11/02 12:14:04;;;;;;;5.07;1.10;;;;;;;;;;5113104;28;20219;-81
2022/11/02 12:16:51;;;;;;;4.15;1.15;;;;;;;;;;5112759;28;20618;-81
2022/11/02 12:19:30;;;;;;;1.98;0.98;;;;;;;;;;5112804;28;20218;-82
2022/11/02 12:22:06;;;;;;;1.13;1.00;;;;;;;;;;5113309;28;20207;-81
2022/11/02 12:24:46;;;;;;;1.70;0.98;;;;;;;;;;5113327;28;20371;-81
2022/11/02 12:27:26;;;;;;;2.85;1.40;;;;;;;;;;5113303;28;20207;-81
2022/11/02 12:30:11;;;;;;;1.40;1.00;;;;;;;;;;5113321;28;20291;-81
2022/11/02 12:33:12;;;;;;;1.02;0.80;;;;;;;;;;5113507;28;20315;-80
2022/11/02 12:36:04;;;;;;;1.27;1.20;;;;;;;;;;5112240;28;20314;-81
2022/11/02 12:38:52;;;;;;;2.80;0.90;;;;;;;;;;5113087;28;20709;-81
2022/11/02 12:41:37;;;;;;;1.80;0.90;;;;;;;;;;5113007;28;20203;-81
2022/11/02 12:44:21;;;;;;;1.65;1.08;;;;;;;;;;5113066;28;20314;-81
2022/11/02 12:46:57;;;;;;;2.47;1.15;;;;;;;;;;5110676;28;20199;-81
2022/11/02 12:49:39;;;;;;;1.67;0.90;;;;;;;;;;5114347;28;20203;-81
2022/11/02 12:52:17;;;;;;;3.83;1.00;;;;;;;;;;5110670;28;20601;-81
2022/11/02 12:54:49;;;;;;;1.63;1.20;;;;;;;;;;5115405;28;20314;-81
2022/11/02 12:57:20;;;;;;;2.17;1.23;;;;;;;;;;5115992;28;20332;-80
2022/11/02 12:59:53;;;;;;;2.45;1.10;;;;;;;;;;5117064;28;20222;-81
2022/11/02 13:02:26;;;;;;;1.73;1.20;;;;;;;;;;5115554;28;20287;-80
2022/11/02 13:05:00;;;;;;;1.90;0.98;;;;;;;;;;5115884;28;20310;-80
2022/11/02 13:07:33;;;;;;;1.35;0.95;;;;;;;;;;5115776;28;20579;-80
2022/11/02 13:10:04;;;;;;;2.83;1.10;;;;;;;;;;5115448;28;20282;-81
2022/11/02 13:12:35;;;;;;;0.98;0.80;;;;;;;;;;5115845;28;20310;-81
2022/11/02 13:15:03;;;;;;;2.40;0.82;;;;;;;;;;5115229;28;20246;-82
2022/11/02 13:17:39;;;;;;;1.48;0.90;;;;;;;;;;5115307;28;20384;-83
2022/11/02 13:20:16;;;;;;;0.90;0.85;;;;;;;;;;5115239;28;20292;-83
2022/11/02 13:22:47;;;;;;;1.58;1.00;;;;;;;;;;5114502;28;20214;-83
2022/11/02 13:25:18;;;;;;;1.67;0.93;;;;;;;;;;5106490;28;20705;-83
2022/11/02 13:27:50;;;;;;;1.15;0.82;;;;;;;;;;5115619;28;20206;-83
2022/11/02 13:30:19;;;;;;;1.30;0.80;;;;;;;;;;5095852;28;20201;-82
2022/11/02 13:32:52;;;;;;;3.22;0.90;;;;;;;;;;5094604;28;20700;-82
2022/11/02 13:35:26;;;;;;;2.20;0.85;;;;;;;;;;5094255;28;20220;-82
2022/11/02 13:37:57;;;;;;;1.23;0.68;;;;;;;;;;5094722;28;20299;-82
2022/11/02 13:40:29;;;;;;;0.70;0.70;;;;;;;;;;5096787;28;20219;-82
2022/11/02 13:43:34;;;;;;;1.38;0.82;;;;;;;;;;5115260;28;20645;-82
2022/11/02 13:46:19;;;;;;;0.80;0.80;;;;;;;;;;5104667;28;20226;-82
2022/11/02 13:48:54;;;;;;;0.73;0.70;;;;;;;;;;5116090;28;20200;-82
2022/11/02 13:51:32;;;;;;;1.85;0.88;;;;;;;;;;5116706;28;20286;-83
2022/11/02 13:54:03;;;;;;;2.40;1.20;;;;;;;;;;5114823;28;20364;-82
2022/11/02 13:56:31;;;;;;;1.52;1.15;;;;;;;;;;5114732;28;20226;-83
2022/11/02 13:59:01;;;;;;;0.93;0.82;;;;;;;;;;5115800;28;20204;-83
2022/11/02 14:01:31;;;;;;;0.80;0.80;;;;;;;;;;5115804;28;20290;-83
2022/11/02 14:04:05;;;;;;;0.70;0.68;;;;;;;;;;5116359;28;20310;-80
2022/11/02 14:06:47;;;;;;;0.85;0.75;;;;;;;;;;5116762;28;20201;-80
2022/11/02 14:09:26;;;;;;;2.65;0.80;;;;;;;;;;5115199;28;20294;-83
2022/11/02 14:12:26;;;;;;;1.08;0.70;;;;;;;;;;5115370;28;20290;-80
2022/11/02 14:15:37;;;;;;;1.45;0.80;;;;;;;;;;5116648;28;20223;-81
2022/11/02 14:18:14;;;;;;;2.13;1.00;;;;;;;;;;5115860;28;20290;-83
2022/11/02 14:20:46;;;;;;;1.52;0.75;;;;;;;;;;5116276;28;20726;-80
2022/11/02 14:23:40;;;;;;;0.80;0.80;;;;;;;;;;5114511;28;20200;-83
2022/11/02 14:26:33;;;;;;;2.00;0.90;;;;;;;;;;5114714;28;20195;-82
2022/11/02 14:29:08;;;;;;;0.75;0.73;;;;;;;;;;5113743;28;20719;-82
2022/11/02 14:31:57;;;;;;;1.10;1.00;;;;;;;;;;5114623;28;20202;-83
2022/11/02 14:34:40;;;;;;;2.05;0.80;;;;;;;;;;5114290;28;20633;-82
2022/11/02 14:37:38;;;;;;;2.65;0.60;;;;;;;;;;5115951;28;20282;-82
2022/11/02 14:40:19;;;;;;;2.08;0.80;;;;;;;;;;5115701;28;20647;-80
2022/11/02 14:43:19;;;;;;;0.77;0.70;;;;;;;;;;5095684;28;20231;-80
2022/11/02 14:46:07;;;;;;;1.40;0.95;;;;;;;;;;5095424;28;20220;-83
2022/11/02 14:48:45;;;;;;;1.23;0.70;;;;;;;;;;5095183;28;20201;-80
2022/11/02 14:51:18;;;;;;;1.17;0.90;;;;;;;;;;5095868;28;20263;-80
2022/11/02 14:53:45;;;;;;;1.58;1.40;;;;;;;;;;5106423;28;20590;-82
2022/11/02 14:56:14;;;;;;;1.70;0.77;;;;;;;;;;5115644;28;20286;-83
2022/11/02 14:58:51;;;;;;;2.67;0.80;;;;;;;;;;5114682;28;20291;-80
2022/11/02 15:01:19;;;;;;;0.70;0.70;;;;;;;;;;5116032;28;20266;-80
2022/11/02 15:03:47;;;;;;;1.02;0.50;;;;;;;;;;5116054;28;20308;-80
2022/11/02 15:06:20;;;;;;;1.10;1.08;;;;;;;;;;5115997;28;20242;-80
2022/11/02 15:08:54;;;;;;;1.15;0.60;;;;;;;;;;5115318;28;20227;-80
2022/11/02 15:11:48;;;;;;;0.82;0.80;;;;;;;;;;5115949;28;20294;-80
2022/11/02 15:14:56;;;;;;;0.80;0.80;;;;;;;;;;5116028;28;20259;-80
2022/11/02 15:17:59;;;;;;;1.30;0.80;;;;;;;;;;5115291;28;20231;-82
2022/11/02 15:20:32;;;;;;;1.45;0.93;;;;;;;;;;5116094;28;20199;-82
2022/11/02 15:23:27;;;;;;;0.80;0.80;;;;;;;;;;5115673;28;20286;-82
2022/11/02 15:25:55;;;;;;;2.58;1.38;;;;;;;;;;5104517;28;20291;-82
2022/11/02 15:28:28;;;;;;;1.30;1.13;;;;;;;;;;5115499;28;20298;-82
2022/11/02 15:30:58;;;;;;;2.35;1.10;;;;;;;;;;5115901;28;20207;-82